AirNav   Air Wisconsin Up To $57,000 Bonus
 
 790 users online  

5TA5 Creasy Airport
Santa Fe, Texas, USA

GOING TO SANTA FE?


FAA INFORMATION EFFECTIVE 02 JANUARY 2020

Location

FAA Identifier: 5TA5
Lat/Long: 29-20-09.8500N 095-06-54.7440W
29-20.164167N 095-06.912400W
29.3360694,-95.1152067
(estimated)
Elevation: 23 ft. / 7 m (estimated)
Variation: 06E (1985)
From city: 3 miles SW of SANTA FE, TX
Time zone: UTC -6 (UTC -5 during Daylight Saving Time)
Zip code: 77517

Airport Operations

Airport use: Private use. Permission required prior to landing
Activation date: 07/1981
Control tower: no
ARTCC: HOUSTON CENTER
FSS: MONTGOMERY COUNTY FLIGHT SERVICE STATION
FOR FP FILING CALL CXO FSS 1-800-833-5602.
Attendance: MON-FRI 1800-0700, ALL SAT-SUN 24 HOURS/DAY
Wind indicator: yes
Segmented circle: no

Airport Communications

WX ASOS at LVJ (13 nm NW): 118.525 (281-992-1853)
WX ASOS at GLS (14 nm E): 119.275 (409-740-9248)

Nearby radio navigation aids

VOR radial/distance  VOR name  Freq  Var
VUHr281/13.6SCHOLES VOR/DME113.0006E
HUBr151/20.9HOBBY VOR/DME117.1005E
MHFr230/23.0TRINITY VOR/DME113.6007E
IAHr157/39.1HUMBLE VORTAC116.6005E

 
NDB name  Hdg/Dist  Freq  Var  ID
GALVESTON262/18.820608EGLS --. .-.. ...

Airport Services

Runway Information

Runway 12/30

Dimensions: 2600 x 150 ft. / 792 x 46 m
Surface: turf
RUNWAY 12  RUNWAY 30
Traffic pattern: rightleft
Obstructions: none30 ft. pline, marked

Airport Ownership and Management from official FAA records

Ownership: Privately-owned
Owner: WILLIAM K. CREASY
13222 VACEK RD
SANTA FE, TX 77510
Phone 409-939-7454
Manager: WILLIAM K. CREASY
13222 VACEK RD
SANTA FE, TX 77510
Phone 409-939-7454

Airport Operational Statistics

Aircraft based on the field: 2
Single engine airplanes: 2
    

Additional Remarks

FOR CD CTC HOUSTON ARTCC AT 281-230-5622.

Instrument Procedures

There are no published instrument procedures at 5TA5.

Some nearby airports with instrument procedures:

KLVJ - Pearland Regional Airport (13 nm NW)
KGLS - Scholes International Airport at Galveston (14 nm E)
KEFD - Ellington Airport (16 nm N)
T41 - La Porte Municipal Airport (20 nm N)
KHOU - William P Hobby Airport (20 nm NW)
 
Loc | Ops | Rwys | IFR | FBO | Links
Com | Nav | Svcs | Stats | Notes
Area around 5TA5 (Creasy Airport)
 
Road maps at: MapQuest Bing Google
 
Aerial photo
No photo
 
Sectional chart

 
Airport distance calculator
Flying to Creasy Airport? Find the distance to fly.

From to 5TA5

Sunrise and sunset
Times for 20-Jan-2020
 Local
(UTC-6)
 Zulu
(UTC)
Morning civil twilight06:5012:50
Sunrise07:1613:16
Sunset17:4723:47
Evening civil twilight18:1300:13

Current date and time
Zulu (UTC)  20-Jan-2020 06:28:40
Local (UTC-6)  20-Jan-2020 00:28:40
 
METAR
KLVJ 
13nm NW 
200553Z AUTO 35004KT 10SM CLR 07/00 A3051 RMK AO2 SLP331 T00670000 10133 20067 401670067 50010
KGLS 
14nm E 
200552Z AUTO 03012KT 10SM CLR 11/01 A3049 RMK AO2 SLP325 T01110006 10139 20111 401720100 51010
KEFD 
16nm N 
200550Z 01006KT 10SM SKC 08/M01 A3050
KHOU 
20nm NW 
200553Z 36006KT 10SM CLR 08/M02 A3050 RMK AO2 SLP333 T00831017 10133 20078 401610078 50012
KAXH 
21nm NW 
200615Z AUTO 36004KT 10SM CLR 06/00 A3051 RMK AO2 T00560000
KLBX 
23nm SW 
200553Z AUTO 00000KT 10SM CLR 06/02 A3050 RMK AO2 SLP327 T00610022 10122 20056 401610056 51013
TAF
KGLS 
14nm E 
200536Z 2006/2106 02014KT P6SM BKN250 FM202200 04008KT P6SM SCT250
KEFD 
16nm N 
200400Z 2004/2110 03009KT 9999 SKC 510012 QNH3050INS BECMG 2016/2017 02012KT 9999 SKC QNH3058INS BECMG 2022/2023 01006KT 9999 SKC QNH3051INS TX13/1920Z TN05/2013Z
KHOU 
20nm NW 
200536Z 2006/2106 02006KT P6SM SCT250
NOTAMs
Click for the latest NOTAMs
NOTAMs are issued by the DoD/FAA and will open in a separate window not controlled by AirNav.

 

 
 

Would you like to see your business listed on this page?

 If your business provides an interesting product or service to pilots, flight crews, aircraft, or users of the Creasy Airport, you should consider listing it here.  To start the listing process, click on the button below
 
Add a business
 

Other Pages about Creasy Airport

Update a link
 
Copyright © AirNav, LLC. All rights reserved. Privacy Policy  Contact